sensor_id;sensor_type;location;lat;lon;timestamp;P1;durP1;ratioP1;P2;durP2;ratioP2
18711;SDS011;9485;49.386;8.674;2023-02-01T00:01:54;3.47;;;2.70;;
18711;SDS011;9485;49.386;8.674;2023-02-01T00:07:15;5.67;;;3.10;;
18711;SDS011;9485;49.386;8.674;2023-02-01T00:12:37;3.53;;;2.87;;
18711;SDS011;9485;49.386;8.674;2023-02-01T00:17:57;3.80;;;3.40;;
18711;SDS011;9485;49.386;8.674;2023-02-01T00:23:18;3.60;;;3.00;;
18711;SDS011;9485;49.386;8.674;2023-02-01T00:28:40;4.20;;;3.10;;
18711;SDS011;9485;49.386;8.674;2023-02-01T00:34:01;5.30;;;2.90;;
18711;SDS011;9485;49.386;8.674;2023-02-01T00:39:22;3.50;;;3.17;;
18711;SDS011;9485;49.386;8.674;2023-02-01T00:44:44;3.37;;;2.90;;
18711;SDS011;9485;49.386;8.674;2023-02-01T00:50:06;4.47;;;3.30;;
18711;SDS011;9485;49.386;8.674;2023-02-01T00:55:28;4.57;;;3.40;;
18711;SDS011;9485;49.386;8.674;2023-02-01T01:00:50;3.50;;;3.00;;
18711;SDS011;9485;49.386;8.674;2023-02-01T01:06:25;3.40;;;3.10;;
18711;SDS011;9485;49.386;8.674;2023-02-01T01:11:48;3.47;;;3.17;;
18711;SDS011;9485;49.386;8.674;2023-02-01T01:17:12;4.90;;;3.20;;
18711;SDS011;9485;49.386;8.674;2023-02-01T01:22:33;4.07;;;3.20;;
18711;SDS011;9485;49.386;8.674;2023-02-01T01:27:54;4.97;;;3.27;;
18711;SDS011;9485;49.386;8.674;2023-02-01T01:33:15;3.70;;;3.20;;
18711;SDS011;9485;49.386;8.674;2023-02-01T01:38:36;4.67;;;3.50;;
18711;SDS011;9485;49.386;8.674;2023-02-01T01:43:58;4.40;;;3.40;;
18711;SDS011;9485;49.386;8.674;2023-02-01T01:49:23;3.90;;;3.13;;
18711;SDS011;9485;49.386;8.674;2023-02-01T01:54:46;4.07;;;3.20;;
18711;SDS011;9485;49.386;8.674;2023-02-01T02:00:12;4.50;;;3.53;;
18711;SDS011;9485;49.386;8.674;2023-02-01T02:06:02;3.33;;;3.00;;
18711;SDS011;9485;49.386;8.674;2023-02-01T02:11:29;4.03;;;3.20;;
18711;SDS011;9485;49.386;8.674;2023-02-01T02:16:52;4.57;;;3.33;;
18711;SDS011;9485;49.386;8.674;2023-02-01T02:22:35;3.60;;;3.20;;
18711;SDS011;9485;49.386;8.674;2023-02-01T02:28:19;5.43;;;3.10;;
18711;SDS011;9485;49.386;8.674;2023-02-01T02:34:16;4.03;;;3.63;;
18711;SDS011;9485;49.386;8.674;2023-02-01T02:39:47;4.33;;;3.73;;
18711;SDS011;9485;49.386;8.674;2023-02-01T02:45:20;4.53;;;3.83;;
18711;SDS011;9485;49.386;8.674;2023-02-01T02:51:09;4.77;;;3.97;;
18711;SDS011;9485;49.386;8.674;2023-02-01T02:57:00;3.97;;;3.60;;
18711;SDS011;9485;49.386;8.674;2023-02-01T03:02:43;4.23;;;3.47;;
18711;SDS011;9485;49.386;8.674;2023-02-01T03:08:25;4.10;;;3.17;;
18711;SDS011;9485;49.386;8.674;2023-02-01T03:13:49;3.83;;;3.43;;
18711;SDS011;9485;49.386;8.674;2023-02-01T03:19:14;4.30;;;3.40;;
18711;SDS011;9485;49.386;8.674;2023-02-01T03:24:41;4.70;;;3.43;;
18711;SDS011;9485;49.386;8.674;2023-02-01T03:30:07;4.73;;;3.37;;
18711;SDS011;9485;49.386;8.674;2023-02-01T03:35:39;4.80;;;3.47;;
18711;SDS011;9485;49.386;8.674;2023-02-01T03:41:10;3.90;;;3.30;;
18711;SDS011;9485;49.386;8.674;2023-02-01T03:46:38;4.83;;;3.90;;
18711;SDS011;9485;49.386;8.674;2023-02-01T03:52:06;5.27;;;3.93;;
18711;SDS011;9485;49.386;8.674;2023-02-01T03:57:37;5.67;;;3.80;;
18711;SDS011;9485;49.386;8.674;2023-02-01T04:03:04;4.73;;;3.97;;
18711;SDS011;9485;49.386;8.674;2023-02-01T04:08:27;5.20;;;3.77;;
18711;SDS011;9485;49.386;8.674;2023-02-01T04:13:48;3.93;;;3.57;;
18711;SDS011;9485;49.386;8.674;2023-02-01T04:19:09;6.57;;;4.60;;
18711;SDS011;9485;49.386;8.674;2023-02-01T04:24:30;4.20;;;3.50;;
18711;SDS011;9485;49.386;8.674;2023-02-01T04:29:51;5.63;;;4.03;;
18711;SDS011;9485;49.386;8.674;2023-02-01T04:35:12;5.30;;;3.93;;
18711;SDS011;9485;49.386;8.674;2023-02-01T04:40:33;4.03;;;3.57;;
18711;SDS011;9485;49.386;8.674;2023-02-01T04:45:57;5.47;;;3.57;;
18711;SDS011;9485;49.386;8.674;2023-02-01T04:51:17;4.03;;;3.53;;
18711;SDS011;9485;49.386;8.674;2023-02-01T04:56:38;5.57;;;3.97;;
18711;SDS011;9485;49.386;8.674;2023-02-01T05:02:01;6.03;;;4.00;;
18711;SDS011;9485;49.386;8.674;2023-02-01T05:07:22;5.33;;;3.80;;
18711;SDS011;9485;49.386;8.674;2023-02-01T05:12:43;5.47;;;4.07;;
18711;SDS011;9485;49.386;8.674;2023-02-01T05:18:23;5.90;;;4.03;;
18711;SDS011;9485;49.386;8.674;2023-02-01T05:23:43;4.50;;;4.00;;
18711;SDS011;9485;49.386;8.674;2023-02-01T05:29:22;4.30;;;3.90;;
18711;SDS011;9485;49.386;8.674;2023-02-01T05:34:44;6.97;;;4.10;;
18711;SDS011;9485;49.386;8.674;2023-02-01T05:40:04;6.57;;;3.33;;
18711;SDS011;9485;49.386;8.674;2023-02-01T05:45:27;5.83;;;4.30;;
18711;SDS011;9485;49.386;8.674;2023-02-01T05:50:48;4.13;;;3.73;;
18711;SDS011;9485;49.386;8.674;2023-02-01T05:56:09;4.50;;;3.37;;
18711;SDS011;9485;49.386;8.674;2023-02-01T06:01:30;4.50;;;3.70;;
18711;SDS011;9485;49.386;8.674;2023-02-01T06:06:52;5.50;;;3.50;;
18711;SDS011;9485;49.386;8.674;2023-02-01T06:12:12;5.00;;;3.70;;
18711;SDS011;9485;49.386;8.674;2023-02-01T06:17:33;5.13;;;4.03;;
18711;SDS011;9485;49.386;8.674;2023-02-01T06:22:55;5.67;;;3.67;;
18711;SDS011;9485;49.386;8.674;2023-02-01T06:28:15;4.90;;;3.67;;
18711;SDS011;9485;49.386;8.674;2023-02-01T06:33:36;4.47;;;3.67;;
18711;SDS011;9485;49.386;8.674;2023-02-01T06:38:58;5.77;;;3.73;;
18711;SDS011;9485;49.386;8.674;2023-02-01T06:44:20;5.70;;;4.20;;
18711;SDS011;9485;49.386;8.674;2023-02-01T06:49:42;6.77;;;3.83;;
18711;SDS011;9485;49.386;8.674;2023-02-01T06:55:05;4.30;;;3.63;;
18711;SDS011;9485;49.386;8.674;2023-02-01T07:00:26;5.37;;;4.37;;
18711;SDS011;9485;49.386;8.674;2023-02-01T07:05:47;8.57;;;4.10;;
18711;SDS011;9485;49.386;8.674;2023-02-01T07:11:10;5.83;;;3.90;;
18711;SDS011;9485;49.386;8.674;2023-02-01T07:16:35;6.33;;;3.87;;
18711;SDS011;9485;49.386;8.674;2023-02-01T07:21:56;5.83;;;3.90;;
18711;SDS011;9485;49.386;8.674;2023-02-01T07:27:18;4.90;;;4.20;;
18711;SDS011;9485;49.386;8.674;2023-02-01T07:32:39;5.50;;;4.17;;
18711;SDS011;9485;49.386;8.674;2023-02-01T07:37:59;4.43;;;3.70;;
18711;SDS011;9485;49.386;8.674;2023-02-01T07:43:21;5.63;;;3.47;;
18711;SDS011;9485;49.386;8.674;2023-02-01T07:48:42;5.23;;;3.30;;
18711;SDS011;9485;49.386;8.674;2023-02-01T07:54:03;4.90;;;3.17;;
18711;SDS011;9485;49.386;8.674;2023-02-01T07:59:25;4.70;;;3.50;;
18711;SDS011;9485;49.386;8.674;2023-02-01T08:04:46;5.67;;;4.27;;
18711;SDS011;9485;49.386;8.674;2023-02-01T08:10:08;6.83;;;4.03;;
18711;SDS011;9485;49.386;8.674;2023-02-01T08:15:31;5.87;;;4.30;;
18711;SDS011;9485;49.386;8.674;2023-02-01T08:20:52;4.73;;;3.97;;
18711;SDS011;9485;49.386;8.674;2023-02-01T08:26:14;6.50;;;4.50;;
18711;SDS011;9485;49.386;8.674;2023-02-01T08:31:39;9.90;;;5.10;;
18711;SDS011;9485;49.386;8.674;2023-02-01T08:37:00;6.70;;;4.27;;
18711;SDS011;9485;49.386;8.674;2023-02-01T08:42:21;5.47;;;3.90;;
18711;SDS011;9485;49.386;8.674;2023-02-01T08:48:01;6.50;;;4.73;;
18711;SDS011;9485;49.386;8.674;2023-02-01T08:53:22;9.50;;;4.53;;
18711;SDS011;9485;49.386;8.674;2023-02-01T08:58:43;7.47;;;4.43;;
18711;SDS011;9485;49.386;8.674;2023-02-01T09:04:05;5.07;;;3.90;;
18711;SDS011;9485;49.386;8.674;2023-02-01T09:09:27;12.97;;;5.03;;
18711;SDS011;9485;49.386;8.674;2023-02-01T09:14:48;6.43;;;4.03;;
18711;SDS011;9485;49.386;8.674;2023-02-01T09:20:10;7.90;;;4.43;;
18711;SDS011;9485;49.386;8.674;2023-02-01T09:25:32;10.40;;;4.70;;
18711;SDS011;9485;49.386;8.674;2023-02-01T09:30:55;6.40;;;3.70;;
18711;SDS011;9485;49.386;8.674;2023-02-01T09:36:19;7.53;;;4.27;;
18711;SDS011;9485;49.386;8.674;2023-02-01T09:41:42;7.93;;;3.97;;
18711;SDS011;9485;49.386;8.674;2023-02-01T09:47:17;5.93;;;3.90;;
18711;SDS011;9485;49.386;8.674;2023-02-01T09:52:43;6.07;;;4.20;;
18711;SDS011;9485;49.386;8.674;2023-02-01T09:58:13;5.40;;;4.00;;
18711;SDS011;9485;49.386;8.674;2023-02-01T10:03:39;7.53;;;3.63;;
18711;SDS011;9485;49.386;8.674;2023-02-01T10:09:10;6.90;;;3.57;;
18711;SDS011;9485;49.386;8.674;2023-02-01T10:14:54;8.67;;;3.67;;
18711;SDS011;9485;49.386;8.674;2023-02-01T10:20:56;5.67;;;3.07;;
18711;SDS011;9485;49.386;8.674;2023-02-01T10:26:29;7.73;;;3.00;;
18711;SDS011;9485;49.386;8.674;2023-02-01T10:31:57;9.00;;;3.03;;
18711;SDS011;9485;49.386;8.674;2023-02-01T10:37:20;6.33;;;2.60;;
18711;SDS011;9485;49.386;8.674;2023-02-01T10:42:56;8.80;;;3.10;;
18711;SDS011;9485;49.386;8.674;2023-02-01T10:48:20;8.73;;;2.67;;
18711;SDS011;9485;49.386;8.674;2023-02-01T10:53:42;5.93;;;2.53;;
18711;SDS011;9485;49.386;8.674;2023-02-01T10:59:15;8.40;;;2.90;;
18711;SDS011;9485;49.386;8.674;2023-02-01T11:04:38;7.83;;;2.83;;
18711;SDS011;9485;49.386;8.674;2023-02-01T11:09:59;7.43;;;2.67;;
18711;SDS011;9485;49.386;8.674;2023-02-01T11:15:22;7.17;;;2.77;;
18711;SDS011;9485;49.386;8.674;2023-02-01T11:20:46;6.73;;;2.67;;
18711;SDS011;9485;49.386;8.674;2023-02-01T11:26:11;9.83;;;3.00;;
18711;SDS011;9485;49.386;8.674;2023-02-01T11:31:36;7.83;;;2.63;;
18711;SDS011;9485;49.386;8.674;2023-02-01T11:36:58;3.37;;;2.37;;
18711;SDS011;9485;49.386;8.674;2023-02-01T11:42:23;8.23;;;3.30;;
18711;SDS011;9485;49.386;8.674;2023-02-01T11:47:46;10.60;;;3.00;;
18711;SDS011;9485;49.386;8.674;2023-02-01T11:53:19;8.70;;;3.20;;
18711;SDS011;9485;49.386;8.674;2023-02-01T11:59:02;6.30;;;3.13;;
18711;SDS011;9485;49.386;8.674;2023-02-01T12:04:57;8.37;;;2.73;;
18711;SDS011;9485;49.386;8.674;2023-02-01T12:10:42;8.53;;;3.00;;
18711;SDS011;9485;49.386;8.674;2023-02-01T12:16:19;9.80;;;2.93;;
18711;SDS011;9485;49.386;8.674;2023-02-01T12:21:55;7.43;;;2.60;;
18711;SDS011;9485;49.386;8.674;2023-02-01T12:27:42;5.03;;;2.67;;
18711;SDS011;9485;49.386;8.674;2023-02-01T12:33:31;7.17;;;2.90;;
18711;SDS011;9485;49.386;8.674;2023-02-01T12:39:06;8.20;;;2.80;;
18711;SDS011;9485;49.386;8.674;2023-02-01T12:44:43;4.50;;;2.40;;
18711;SDS011;9485;49.386;8.674;2023-02-01T12:50:12;7.03;;;2.47;;
18711;SDS011;9485;49.386;8.674;2023-02-01T12:55:43;6.70;;;2.37;;
18711;SDS011;9485;49.386;8.674;2023-02-01T13:01:12;6.37;;;2.40;;
18711;SDS011;9485;49.386;8.674;2023-02-01T13:06:41;5.07;;;2.70;;
18711;SDS011;9485;49.386;8.674;2023-02-01T13:12:15;5.20;;;2.60;;
18711;SDS011;9485;49.386;8.674;2023-02-01T13:17:40;4.67;;;2.10;;
18711;SDS011;9485;49.386;8.674;2023-02-01T13:23:05;4.97;;;2.23;;
18711;SDS011;9485;49.386;8.674;2023-02-01T13:28:47;6.33;;;2.10;;
18711;SDS011;9485;49.386;8.674;2023-02-01T13:40:23;6.27;;;2.27;;
18711;SDS011;9485;49.386;8.674;2023-02-01T13:46:02;6.77;;;2.50;;
18711;SDS011;9485;49.386;8.674;2023-02-01T13:51:33;5.23;;;2.30;;
18711;SDS011;9485;49.386;8.674;2023-02-01T13:56:59;11.30;;;2.80;;
18711;SDS011;9485;49.386;8.674;2023-02-01T14:08:43;9.27;;;2.80;;
18711;SDS011;9485;49.386;8.674;2023-02-01T14:26:06;6.73;;;3.03;;
18711;SDS011;9485;49.386;8.674;2023-02-01T14:31:40;6.43;;;2.43;;
18711;SDS011;9485;49.386;8.674;2023-02-01T14:37:10;5.03;;;2.37;;
18711;SDS011;9485;49.386;8.674;2023-02-01T14:42:47;5.23;;;2.00;;
18711;SDS011;9485;49.386;8.674;2023-02-01T14:54:06;7.03;;;2.37;;
18711;SDS011;9485;49.386;8.674;2023-02-01T14:59:35;12.13;;;2.30;;
18711;SDS011;9485;49.386;8.674;2023-02-01T15:04:56;8.07;;;2.20;;
18711;SDS011;9485;49.386;8.674;2023-02-01T15:10:19;4.20;;;2.30;;
18711;SDS011;9485;49.386;8.674;2023-02-01T15:15:43;9.40;;;2.67;;
18711;SDS011;9485;49.386;8.674;2023-02-01T15:21:04;7.70;;;2.43;;
18711;SDS011;9485;49.386;8.674;2023-02-01T15:26:27;5.63;;;2.33;;
18711;SDS011;9485;49.386;8.674;2023-02-01T15:31:52;5.50;;;1.90;;
18711;SDS011;9485;49.386;8.674;2023-02-01T15:37:14;8.83;;;2.93;;
18711;SDS011;9485;49.386;8.674;2023-02-01T15:42:37;5.07;;;2.00;;
18711;SDS011;9485;49.386;8.674;2023-02-01T15:48:14;4.77;;;2.20;;
18711;SDS011;9485;49.386;8.674;2023-02-01T15:53:43;6.47;;;2.23;;
18711;SDS011;9485;49.386;8.674;2023-02-01T15:59:12;6.93;;;2.03;;
18711;SDS011;9485;49.386;8.674;2023-02-01T16:04:45;5.37;;;2.13;;
18711;SDS011;9485;49.386;8.674;2023-02-01T16:10:19;7.20;;;2.17;;
18711;SDS011;9485;49.386;8.674;2023-02-01T16:15:49;5.07;;;2.00;;
18711;SDS011;9485;49.386;8.674;2023-02-01T16:21:11;12.10;;;2.30;;
18711;SDS011;9485;49.386;8.674;2023-02-01T16:26:33;6.93;;;2.00;;
18711;SDS011;9485;49.386;8.674;2023-02-01T16:31:53;8.43;;;2.47;;
18711;SDS011;9485;49.386;8.674;2023-02-01T16:37:16;5.33;;;2.33;;
18711;SDS011;9485;49.386;8.674;2023-02-01T16:42:41;8.60;;;2.40;;
18711;SDS011;9485;49.386;8.674;2023-02-01T16:48:03;4.87;;;2.00;;
18711;SDS011;9485;49.386;8.674;2023-02-01T16:53:26;10.47;;;2.43;;
18711;SDS011;9485;49.386;8.674;2023-02-01T16:58:50;6.53;;;2.10;;
18711;SDS011;9485;49.386;8.674;2023-02-01T17:04:12;5.43;;;2.57;;
18711;SDS011;9485;49.386;8.674;2023-02-01T17:09:36;7.17;;;2.70;;
18711;SDS011;9485;49.386;8.674;2023-02-01T17:14:58;7.30;;;2.43;;
18711;SDS011;9485;49.386;8.674;2023-02-01T17:20:20;7.97;;;2.73;;
18711;SDS011;9485;49.386;8.674;2023-02-01T17:25:45;6.70;;;2.93;;
18711;SDS011;9485;49.386;8.674;2023-02-01T17:31:06;8.30;;;3.40;;
18711;SDS011;9485;49.386;8.674;2023-02-01T17:36:32;11.60;;;3.30;;
18711;SDS011;9485;49.386;8.674;2023-02-01T17:41:55;6.73;;;3.50;;
18711;SDS011;9485;49.386;8.674;2023-02-01T17:47:16;9.00;;;3.37;;
18711;SDS011;9485;49.386;8.674;2023-02-01T17:52:36;5.87;;;2.70;;
18711;SDS011;9485;49.386;8.674;2023-02-01T17:57:58;5.47;;;2.43;;
18711;SDS011;9485;49.386;8.674;2023-02-01T18:03:21;7.50;;;3.03;;
18711;SDS011;9485;49.386;8.674;2023-02-01T18:08:44;7.93;;;2.63;;
18711;SDS011;9485;49.386;8.674;2023-02-01T18:14:08;7.87;;;3.40;;
18711;SDS011;9485;49.386;8.674;2023-02-01T18:19:31;7.20;;;2.90;;
18711;SDS011;9485;49.386;8.674;2023-02-01T18:24:52;4.50;;;3.07;;
18711;SDS011;9485;49.386;8.674;2023-02-01T18:30:15;6.20;;;2.67;;
18711;SDS011;9485;49.386;8.674;2023-02-01T18:35:36;7.27;;;3.10;;
18711;SDS011;9485;49.386;8.674;2023-02-01T18:40:57;5.90;;;2.87;;
18711;SDS011;9485;49.386;8.674;2023-02-01T18:46:22;9.47;;;2.97;;
18711;SDS011;9485;49.386;8.674;2023-02-01T18:51:44;5.27;;;2.60;;
18711;SDS011;9485;49.386;8.674;2023-02-01T18:57:05;8.63;;;2.87;;
18711;SDS011;9485;49.386;8.674;2023-02-01T19:02:28;7.40;;;2.57;;
18711;SDS011;9485;49.386;8.674;2023-02-01T19:07:49;7.93;;;4.33;;
18711;SDS011;9485;49.386;8.674;2023-02-01T19:13:10;8.37;;;3.30;;
18711;SDS011;9485;49.386;8.674;2023-02-01T19:18:33;5.77;;;2.83;;
18711;SDS011;9485;49.386;8.674;2023-02-01T19:23:55;6.57;;;2.87;;
18711;SDS011;9485;49.386;8.674;2023-02-01T19:29:16;9.93;;;3.07;;
18711;SDS011;9485;49.386;8.674;2023-02-01T19:34:38;6.63;;;2.97;;
18711;SDS011;9485;49.386;8.674;2023-02-01T19:39:59;5.13;;;3.50;;
18711;SDS011;9485;49.386;8.674;2023-02-01T19:45:20;7.03;;;2.47;;
18711;SDS011;9485;49.386;8.674;2023-02-01T19:50:42;8.63;;;2.70;;
18711;SDS011;9485;49.386;8.674;2023-02-01T19:56:03;6.50;;;2.50;;
18711;SDS011;9485;49.386;8.674;2023-02-01T20:01:24;4.47;;;2.30;;
18711;SDS011;9485;49.386;8.674;2023-02-01T20:06:46;8.53;;;4.37;;
18711;SDS011;9485;49.386;8.674;2023-02-01T20:12:09;9.47;;;3.43;;
18711;SDS011;9485;49.386;8.674;2023-02-01T20:17:30;8.87;;;3.70;;
18711;SDS011;9485;49.386;8.674;2023-02-01T20:22:52;7.70;;;3.30;;
18711;SDS011;9485;49.386;8.674;2023-02-01T20:28:13;8.67;;;2.70;;
18711;SDS011;9485;49.386;8.674;2023-02-01T20:33:33;5.87;;;2.33;;
18711;SDS011;9485;49.386;8.674;2023-02-01T20:38:55;7.03;;;2.77;;
18711;SDS011;9485;49.386;8.674;2023-02-01T20:44:17;7.47;;;2.60;;
18711;SDS011;9485;49.386;8.674;2023-02-01T20:49:38;6.40;;;2.43;;
18711;SDS011;9485;49.386;8.674;2023-02-01T20:55:00;4.33;;;2.23;;
18711;SDS011;9485;49.386;8.674;2023-02-01T21:00:21;6.93;;;2.10;;
18711;SDS011;9485;49.386;8.674;2023-02-01T21:05:44;7.90;;;2.17;;
18711;SDS011;9485;49.386;8.674;2023-02-01T21:11:09;8.57;;;2.33;;
18711;SDS011;9485;49.386;8.674;2023-02-01T21:16:31;5.43;;;2.20;;
18711;SDS011;9485;49.386;8.674;2023-02-01T21:21:52;5.40;;;2.30;;
18711;SDS011;9485;49.386;8.674;2023-02-01T21:27:14;5.60;;;2.37;;
18711;SDS011;9485;49.386;8.674;2023-02-01T21:32:36;8.40;;;2.87;;
18711;SDS011;9485;49.386;8.674;2023-02-01T21:37:56;9.13;;;2.83;;
18711;SDS011;9485;49.386;8.674;2023-02-01T21:43:19;8.40;;;3.00;;
18711;SDS011;9485;49.386;8.674;2023-02-01T21:48:39;10.37;;;3.33;;
18711;SDS011;9485;49.386;8.674;2023-02-01T21:53:59;4.63;;;2.20;;
18711;SDS011;9485;49.386;8.674;2023-02-01T21:59:22;7.70;;;2.73;;
18711;SDS011;9485;49.386;8.674;2023-02-01T22:04:42;7.80;;;2.90;;
18711;SDS011;9485;49.386;8.674;2023-02-01T22:10:03;7.10;;;2.40;;
18711;SDS011;9485;49.386;8.674;2023-02-01T22:15:26;6.60;;;2.17;;
18711;SDS011;9485;49.386;8.674;2023-02-01T22:20:47;5.10;;;2.20;;
18711;SDS011;9485;49.386;8.674;2023-02-01T22:26:08;7.93;;;2.97;;
18711;SDS011;9485;49.386;8.674;2023-02-01T22:31:34;6.77;;;2.40;;
18711;SDS011;9485;49.386;8.674;2023-02-01T22:36:54;9.33;;;2.40;;
18711;SDS011;9485;49.386;8.674;2023-02-01T22:42:15;6.37;;;2.40;;
18711;SDS011;9485;49.386;8.674;2023-02-01T22:47:37;6.67;;;2.53;;
18711;SDS011;9485;49.386;8.674;2023-02-01T22:52:57;7.07;;;2.73;;
18711;SDS011;9485;49.386;8.674;2023-02-01T22:58:18;6.10;;;2.67;;
18711;SDS011;9485;49.386;8.674;2023-02-01T23:03:41;8.27;;;2.50;;
18711;SDS011;9485;49.386;8.674;2023-02-01T23:09:02;7.67;;;2.60;;
18711;SDS011;9485;49.386;8.674;2023-02-01T23:14:29;6.97;;;2.40;;
18711;SDS011;9485;49.386;8.674;2023-02-01T23:19:50;8.77;;;2.60;;
18711;SDS011;9485;49.386;8.674;2023-02-01T23:25:11;5.67;;;2.80;;
18711;SDS011;9485;49.386;8.674;2023-02-01T23:30:34;6.37;;;2.70;;
18711;SDS011;9485;49.386;8.674;2023-02-01T23:35:57;7.57;;;2.70;;
18711;SDS011;9485;49.386;8.674;2023-02-01T23:41:23;9.30;;;2.70;;
18711;SDS011;9485;49.386;8.674;2023-02-01T23:46:45;7.17;;;2.83;;
18711;SDS011;9485;49.386;8.674;2023-02-01T23:52:07;7.40;;;2.90;;
18711;SDS011;9485;49.386;8.674;2023-02-01T23:57:29;8.20;;;3.00;;
